createdAt,value
2023-01-15T00:00:54.266Z,90.92
2023-01-15T00:01:54.270Z,88.86
2023-01-15T00:02:54.255Z,88.76
2023-01-15T00:03:54.237Z,89.89
2023-01-15T00:04:54.267Z,89.28
2023-01-15T00:05:54.203Z,90.20
2023-01-15T00:06:54.193Z,90.31
2023-01-15T00:07:54.188Z,90.41
2023-01-15T00:08:54.161Z,91.44
2023-01-15T00:09:54.156Z,91.96
2023-01-15T00:10:54.172Z,91.96
2023-01-15T00:11:54.134Z,91.48
2023-01-15T00:12:54.119Z,91.96
2023-01-15T00:13:54.106Z,91.48
2023-01-15T00:14:54.096Z,91.85
2023-01-15T00:15:54.219Z,91.07
2023-01-15T00:16:54.103Z,91.79
2023-01-15T00:17:54.059Z,90.35
2023-01-15T00:18:54.056Z,90.92
2023-01-15T00:19:54.040Z,90.61
2023-01-15T00:20:54.030Z,90.66
2023-01-15T00:21:54.187Z,90.97
2023-01-15T00:22:54.035Z,91.17
2023-01-15T00:23:54.031Z,91.79
2023-01-15T00:24:53.993Z,92.31
2023-01-15T00:25:53.994Z,92.31
2023-01-15T00:26:53.975Z,92.00
2023-01-15T00:27:53.950Z,92.00
2023-01-15T00:28:53.973Z,91.58
2023-01-15T00:29:53.926Z,90.66
2023-01-15T00:30:53.938Z,90.35
2023-01-15T00:31:53.912Z,90.55
2023-01-15T00:32:53.917Z,90.76
2023-01-15T00:33:53.880Z,91.13
2023-01-15T00:34:53.907Z,91.34
2023-01-15T00:35:53.870Z,91.64
2023-01-15T00:36:53.864Z,92.06
2023-01-15T00:37:53.836Z,91.89
2023-01-15T00:38:53.852Z,90.86
2023-01-15T00:39:53.852Z,91.48
2023-01-15T00:40:53.828Z,91.89
2023-01-15T00:41:53.787Z,92.31
2023-01-15T00:42:54.255Z,92.61
2023-01-15T00:43:53.767Z,92.51
2023-01-15T00:44:53.756Z,92.93
2023-01-15T00:45:53.741Z,93.13
2023-01-15T00:46:53.771Z,93.34
2023-01-15T00:47:53.736Z,93.13
2023-01-15T00:48:53.724Z,93.13
2023-01-15T00:49:53.704Z,92.41
2023-01-15T00:50:53.688Z,92.41
2023-01-15T00:51:53.677Z,92.82
2023-01-15T00:52:53.893Z,92.31
2023-01-15T00:53:53.675Z,92.31
2023-01-15T00:54:53.641Z,92.21
2023-01-15T00:55:53.639Z,92.51
2023-01-15T00:56:53.623Z,92.72
2023-01-15T00:57:53.623Z,92.93
2023-01-15T00:58:53.617Z,92.93
2023-01-15T00:59:53.583Z,92.61
2023-01-15T01:00:53.654Z,92.21
2023-01-15T01:01:53.699Z,92.35
2023-01-15T01:02:53.555Z,92.51
2023-01-15T01:03:53.572Z,93.03
2023-01-15T01:04:53.539Z,92.76
2023-01-15T01:05:53.518Z,92.76
2023-01-15T01:06:53.521Z,92.76
2023-01-15T01:07:53.487Z,92.66
2023-01-15T01:08:53.495Z,92.76
2023-01-15T01:09:53.502Z,93.13
2023-01-15T01:10:53.474Z,93.34
2023-01-15T01:11:53.445Z,93.34
2023-01-15T01:12:53.444Z,93.59
2023-01-15T01:13:53.421Z,93.49
2023-01-15T01:14:53.411Z,93.38
2023-01-15T01:15:53.447Z,93.18
2023-01-15T01:16:53.405Z,93.38
2023-01-15T01:17:53.392Z,93.28
2023-01-15T01:18:53.378Z,93.69
2023-01-15T01:19:53.364Z,93.49
2023-01-15T01:20:53.339Z,93.59
2023-01-15T01:21:53.352Z,93.38
2023-01-15T01:22:53.316Z,93.59
2023-01-15T01:23:53.311Z,94.10
2023-01-15T01:24:53.295Z,94.10
2023-01-15T01:25:53.306Z,94.42
2023-01-15T01:26:54.701Z,94.27
2023-01-15T01:27:53.295Z,94.10
2023-01-15T01:28:53.247Z,94.10
2023-01-15T01:29:53.237Z,94.21
2023-01-15T01:30:53.240Z,94.42
2023-01-15T01:31:53.220Z,94.57
2023-01-15T01:32:53.199Z,94.42
2023-01-15T01:33:53.248Z,94.10
2023-01-15T01:34:53.179Z,94.17
2023-01-15T01:35:53.192Z,94.47
2023-01-15T01:36:53.162Z,94.10
2023-01-15T01:37:53.152Z,93.79
2023-01-15T01:38:53.133Z,93.75
2023-01-15T01:39:53.143Z,94.06
2023-01-15T01:40:53.112Z,94.06
2023-01-15T01:41:53.104Z,93.65
2023-01-15T01:42:53.089Z,93.65
2023-01-15T01:43:53.081Z,93.65
2023-01-15T01:44:53.069Z,93.44
2023-01-15T01:45:53.182Z,93.54
2023-01-15T01:46:53.051Z,93.65
2023-01-15T01:47:53.035Z,92.93
2023-01-15T01:48:53.024Z,92.93
2023-01-15T01:49:53.015Z,93.03
2023-01-15T01:50:52.996Z,92.93
2023-01-15T01:51:53.020Z,93.13
2023-01-15T01:52:52.980Z,92.82
2023-01-15T01:53:52.975Z,92.72
2023-01-15T01:54:52.952Z,92.41
2023-01-15T01:55:52.939Z,92.72
2023-01-15T01:56:52.947Z,92.21
2023-01-15T01:57:53.386Z,92.10
2023-01-15T01:58:52.907Z,92.31
2023-01-15T01:59:52.905Z,92.10
2023-01-15T02:00:52.947Z,91.58
2023-01-15T02:01:52.966Z,91.69
2023-01-15T02:02:52.858Z,92.00
2023-01-15T02:03:52.878Z,92.10
2023-01-15T02:04:52.835Z,92.41
2023-01-15T02:05:52.829Z,92.51
2023-01-15T02:06:52.812Z,92.21
2023-01-15T02:07:52.821Z,92.00
2023-01-15T02:08:53.688Z,92.51
2023-01-15T02:09:52.793Z,92.51
2023-01-15T02:10:52.780Z,92.51
2023-01-15T02:11:52.758Z,92.82
2023-01-15T02:12:52.744Z,92.41
2023-01-15T02:13:52.736Z,92.31
2023-01-15T02:14:52.758Z,92.21
2023-01-15T02:15:52.728Z,92.21
2023-01-15T02:16:52.704Z,92.21
2023-01-15T02:17:52.701Z,92.41
2023-01-15T02:18:52.699Z,92.00
2023-01-15T02:19:52.667Z,91.89
2023-01-15T02:20:52.690Z,91.89
2023-01-15T02:21:52.649Z,91.69
2023-01-15T02:22:52.663Z,91.89
2023-01-15T02:23:52.626Z,92.21
2023-01-15T02:24:52.621Z,92.00
2023-01-15T02:25:52.619Z,92.21
2023-01-15T02:26:52.616Z,91.89
2023-01-15T02:27:52.585Z,91.79
2023-01-15T02:28:52.563Z,91.48
2023-01-15T02:29:52.582Z,91.48
2023-01-15T02:30:52.538Z,91.38
2023-01-15T02:31:52.615Z,91.89
2023-01-15T02:32:52.555Z,91.48
2023-01-15T02:33:52.511Z,91.38
2023-01-15T02:34:52.499Z,91.17
2023-01-15T02:35:52.491Z,90.97
2023-01-15T02:36:52.474Z,91.17
2023-01-15T02:37:52.485Z,91.28
2023-01-15T02:38:52.479Z,91.48
2023-01-15T02:39:52.440Z,91.69
2023-01-15T02:40:52.429Z,91.79
2023-01-15T02:41:52.431Z,91.48
2023-01-15T02:42:52.406Z,91.48
2023-01-15T02:43:52.404Z,91.58
2023-01-15T02:44:52.408Z,91.69
2023-01-15T02:45:52.401Z,91.69
2023-01-15T02:46:52.359Z,91.48
2023-01-15T02:47:52.355Z,91.48
2023-01-15T02:48:52.339Z,91.48
2023-01-15T02:49:52.359Z,90.86
2023-01-15T02:50:52.336Z,90.66
2023-01-15T02:51:52.318Z,90.76
2023-01-15T02:52:52.317Z,90.97
2023-01-15T02:53:52.284Z,90.97
2023-01-15T02:54:52.276Z,90.55
2023-01-15T02:55:52.297Z,90.66
2023-01-15T02:56:52.250Z,91.17
2023-01-15T02:57:52.233Z,91.17
2023-01-15T02:58:52.235Z,90.97
2023-01-15T02:59:52.229Z,90.97
2023-01-15T03:00:52.250Z,91.07
2023-01-15T03:01:52.639Z,91.07
2023-01-15T03:02:52.222Z,91.28
2023-01-15T03:03:52.169Z,91.07
2023-01-15T03:04:52.162Z,91.07
2023-01-15T03:05:52.160Z,90.55
2023-01-15T03:06:52.153Z,90.76
2023-01-15T03:07:52.168Z,90.55
2023-01-15T03:08:52.126Z,90.55
2023-01-15T03:09:52.096Z,90.86
2023-01-15T03:10:52.097Z,90.97
2023-01-15T03:11:52.078Z,90.76
2023-01-15T03:12:52.070Z,90.55
2023-01-15T03:13:52.087Z,90.35
2023-01-15T03:14:52.052Z,90.25
2023-01-15T03:15:52.037Z,90.25
2023-01-15T03:16:52.079Z,90.35
2023-01-15T03:17:52.017Z,90.14
2023-01-15T03:18:52.058Z,90.14
2023-01-15T03:19:51.989Z,90.35
2023-01-15T03:20:51.995Z,90.55
2023-01-15T03:21:51.964Z,89.94
2023-01-15T03:22:51.966Z,89.73
2023-01-15T03:23:51.960Z,89.83
2023-01-15T03:24:51.964Z,90.25
2023-01-15T03:25:51.921Z,90.45
2023-01-15T03:26:51.910Z,90.35
2023-01-15T03:27:51.909Z,90.25
2023-01-15T03:28:51.901Z,90.55
2023-01-15T03:29:51.873Z,90.25
2023-01-15T03:30:51.944Z,90.35
2023-01-15T03:31:51.849Z,90.25
2023-01-15T03:32:51.846Z,90.25
2023-01-15T03:33:51.844Z,89.83
2023-01-15T03:34:51.822Z,89.94
2023-01-15T03:35:51.829Z,89.22
2023-01-15T03:36:51.800Z,89.32
2023-01-15T03:37:51.785Z,89.42
2023-01-15T03:38:51.771Z,89.42
2023-01-15T03:39:51.771Z,89.52
2023-01-15T03:40:51.757Z,89.62
2023-01-15T03:41:51.758Z,89.94
2023-01-15T03:42:51.735Z,89.83
2023-01-15T03:43:51.712Z,89.73
2023-01-15T03:44:51.716Z,90.04
2023-01-15T03:45:51.719Z,90.25
2023-01-15T03:46:51.683Z,90.14
2023-01-15T03:47:51.693Z,89.52
2023-01-15T03:48:51.664Z,89.52
2023-01-15T03:49:51.661Z,89.52
2023-01-15T03:50:51.653Z,89.62
2023-01-15T03:51:51.642Z,89.83
2023-01-15T03:52:51.617Z,89.83
2023-01-15T03:53:51.780Z,89.73
2023-01-15T03:54:51.591Z,89.94
2023-01-15T03:55:51.585Z,89.94
2023-01-15T03:56:51.573Z,89.83
2023-01-15T03:57:51.565Z,89.56
2023-01-15T03:58:51.567Z,89.42
2023-01-15T03:59:51.568Z,89.52
2023-01-15T04:00:51.523Z,89.32
2023-01-15T04:01:51.653Z,89.22
2023-01-15T04:02:51.511Z,89.22
2023-01-15T04:03:51.503Z,89.52
2023-01-15T04:04:51.477Z,89.52
2023-01-15T04:05:51.488Z,89.22
2023-01-15T04:06:51.452Z,88.80
2023-01-15T04:07:51.446Z,89.22
2023-01-15T04:08:51.438Z,89.32
2023-01-15T04:09:51.423Z,89.22
2023-01-15T04:10:51.411Z,89.62
2023-01-15T04:11:51.428Z,89.46
2023-01-15T04:12:51.401Z,89.56
2023-01-15T04:13:51.373Z,89.98
2023-01-15T04:14:51.365Z,89.98
2023-01-15T04:15:51.411Z,90.08
2023-01-15T04:16:51.344Z,90.08
2023-01-15T04:17:51.364Z,89.56
2023-01-15T04:18:51.315Z,89.67
2023-01-15T04:19:51.310Z,90.08
2023-01-15T04:20:51.293Z,90.28
2023-01-15T04:21:51.289Z,89.77
2023-01-15T04:22:51.270Z,89.56
2023-01-15T04:23:51.305Z,89.56
2023-01-15T04:24:51.260Z,89.77
2023-01-15T04:25:51.242Z,89.87
2023-01-15T04:26:51.232Z,89.87
2023-01-15T04:27:51.228Z,89.36
2023-01-15T04:28:51.252Z,89.46
2023-01-15T04:29:51.234Z,89.77
2023-01-15T04:30:51.288Z,89.67
2023-01-15T04:31:51.177Z,89.87
2023-01-15T04:32:51.158Z,90.08
2023-01-15T04:33:51.149Z,89.98
2023-01-15T04:34:51.138Z,89.87
2023-01-15T04:35:51.157Z,89.67
2023-01-15T04:36:51.120Z,89.67
2023-01-15T04:37:51.128Z,89.87
2023-01-15T04:38:51.092Z,90.08
2023-01-15T04:39:51.086Z,89.67
2023-01-15T04:40:51.082Z,89.36
2023-01-15T04:41:51.085Z,89.25
2023-01-15T04:42:51.065Z,89.25
2023-01-15T04:43:51.061Z,89.56
2023-01-15T04:44:51.024Z,89.25
2023-01-15T04:45:51.126Z,89.46
2023-01-15T04:46:51.000Z,89.56
2023-01-15T04:47:51.007Z,89.56
2023-01-15T04:48:50.981Z,89.46
2023-01-15T04:49:50.971Z,89.46
2023-01-15T04:50:50.968Z,89.67
2023-01-15T04:51:50.980Z,89.98
2023-01-15T04:52:50.935Z,89.67
2023-01-15T04:53:50.929Z,89.77
2023-01-15T04:54:50.923Z,89.98
2023-01-15T04:55:50.901Z,89.87
2023-01-15T04:56:50.895Z,89.77
2023-01-15T04:57:50.910Z,89.98
2023-01-15T04:58:50.874Z,90.08
2023-01-15T04:59:50.857Z,90.08
2023-01-15T05:00:50.845Z,90.08
2023-01-15T05:02:02.517Z,90.19
2023-01-15T05:02:50.855Z,90.39
2023-01-15T05:03:50.852Z,90.39
2023-01-15T05:04:50.911Z,90.28
2023-01-15T05:05:50.798Z,90.19
2023-01-15T05:06:50.777Z,90.39
2023-01-15T05:07:50.764Z,90.59
2023-01-15T05:08:50.754Z,90.59
2023-01-15T05:09:50.764Z,90.59
2023-01-15T05:10:50.745Z,90.49
2023-01-15T05:11:50.740Z,90.08
2023-01-15T05:12:50.711Z,89.87
2023-01-15T05:13:50.702Z,89.98
2023-01-15T05:14:50.693Z,90.08
2023-01-15T05:15:50.733Z,89.77
2023-01-15T05:16:50.687Z,89.67
2023-01-15T05:17:50.653Z,89.36
2023-01-15T05:18:50.643Z,89.56
2023-01-15T05:19:50.633Z,89.46
2023-01-15T05:20:50.627Z,89.15
2023-01-15T05:21:50.621Z,89.36
2023-01-15T05:22:50.613Z,89.46
2023-01-15T05:23:50.583Z,89.77
2023-01-15T05:24:50.574Z,89.67
2023-01-15T05:25:50.555Z,89.87
2023-01-15T05:26:50.606Z,89.67
2023-01-15T05:27:50.539Z,89.67
2023-01-15T05:28:50.529Z,89.67
2023-01-15T05:29:50.511Z,89.67
2023-01-15T05:30:50.548Z,89.67
2023-01-15T05:31:50.486Z,89.77
2023-01-15T05:32:50.516Z,89.67
2023-01-15T05:33:50.485Z,89.46
2023-01-15T05:34:50.470Z,89.46
2023-01-15T05:35:50.449Z,89.46
2023-01-15T05:36:50.438Z,89.56
2023-01-15T05:37:50.430Z,89.77
2023-01-15T05:38:50.463Z,89.67
2023-01-15T05:39:50.409Z,89.46
2023-01-15T05:40:50.395Z,89.77
2023-01-15T05:41:50.653Z,89.77
2023-01-15T05:42:50.367Z,89.77
2023-01-15T05:43:50.361Z,89.67
2023-01-15T05:44:50.385Z,89.87
2023-01-15T05:45:50.334Z,89.87
2023-01-15T05:46:50.337Z,89.87
2023-01-15T05:47:50.312Z,90.08
2023-01-15T05:48:50.311Z,90.19
2023-01-15T05:49:50.296Z,90.08
2023-01-15T05:50:50.307Z,89.98
2023-01-15T05:51:50.276Z,89.87
2023-01-15T05:52:50.267Z,90.08
2023-01-15T05:53:50.245Z,90.28
2023-01-15T05:54:50.230Z,90.28
2023-01-15T05:55:50.225Z,90.08
2023-01-15T05:56:50.288Z,89.98
2023-01-15T05:57:50.206Z,89.67
2023-01-15T05:58:50.192Z,89.56
2023-01-15T05:59:50.191Z,89.56
2023-01-15T06:00:50.162Z,89.36
2023-01-15T06:01:50.155Z,89.56
2023-01-15T06:02:50.268Z,89.67
2023-01-15T06:03:50.197Z,89.46
2023-01-15T06:04:50.118Z,89.15
2023-01-15T06:05:50.120Z,89.15
2023-01-15T06:06:50.099Z,89.15
2023-01-15T06:07:50.112Z,89.25
2023-01-15T06:08:50.120Z,89.25
2023-01-15T06:09:50.061Z,89.25
2023-01-15T06:10:50.055Z,89.15
2023-01-15T06:11:50.039Z,88.95
2023-01-15T06:12:50.036Z,88.74
2023-01-15T06:13:50.017Z,88.95
2023-01-15T06:14:50.037Z,88.74
2023-01-15T06:15:50.087Z,88.84
2023-01-15T06:16:49.994Z,89.15
2023-01-15T06:17:49.975Z,89.56
2023-01-15T06:18:49.967Z,89.67
2023-01-15T06:19:49.959Z,89.67
2023-01-15T06:20:49.994Z,89.36
2023-01-15T06:21:49.928Z,89.36
2023-01-15T06:22:49.926Z,89.15
2023-01-15T06:23:49.906Z,89.15
2023-01-15T06:24:49.912Z,88.95
2023-01-15T06:25:49.900Z,89.05
2023-01-15T06:26:49.911Z,88.74
2023-01-15T06:27:49.862Z,88.53
2023-01-15T06:28:49.866Z,88.53
2023-01-15T06:29:49.839Z,88.74
2023-01-15T06:30:49.834Z,88.84
2023-01-15T06:31:49.945Z,88.74
2023-01-15T06:32:49.848Z,88.84
2023-01-15T06:33:49.793Z,88.84
2023-01-15T06:34:49.790Z,88.74
2023-01-15T06:35:49.773Z,88.84
2023-01-15T06:36:49.763Z,88.74
2023-01-15T06:37:49.743Z,88.74
2023-01-15T06:38:49.754Z,88.53
2023-01-15T06:39:49.731Z,87.77
2023-01-15T06:40:49.717Z,87.56
2023-01-15T06:41:49.698Z,87.77
2023-01-15T06:42:49.696Z,87.77
2023-01-15T06:43:49.681Z,87.98
2023-01-15T06:44:49.725Z,88.18
2023-01-15T06:45:49.674Z,88.18
2023-01-15T06:46:49.685Z,88.18
2023-01-15T06:47:49.634Z,88.39
2023-01-15T06:48:49.652Z,88.18
2023-01-15T06:49:49.609Z,88.18
2023-01-15T06:50:49.639Z,88.18
2023-01-15T06:51:49.588Z,88.29
2023-01-15T06:52:49.585Z,88.18
2023-01-15T06:53:49.570Z,88.49
2023-01-15T06:54:49.563Z,88.18
2023-01-15T06:55:49.559Z,87.98
2023-01-15T06:56:49.565Z,87.77
2023-01-15T06:57:49.539Z,87.87
2023-01-15T06:58:49.511Z,88.29
2023-01-15T06:59:49.508Z,88.08
2023-01-15T07:00:49.517Z,87.98
2023-01-15T07:01:49.547Z,88.18
2023-01-15T07:02:49.491Z,88.08
2023-01-15T07:03:49.515Z,88.08
2023-01-15T07:04:49.447Z,88.39
2023-01-15T07:05:49.434Z,88.08
2023-01-15T07:06:49.432Z,88.29
2023-01-15T07:07:49.418Z,88.39
2023-01-15T07:08:49.427Z,88.18
2023-01-15T07:09:49.395Z,88.08
2023-01-15T07:10:49.380Z,88.29
2023-01-15T07:11:49.737Z,88.18
2023-01-15T07:12:49.346Z,88.08
2023-01-15T07:13:49.356Z,88.08
2023-01-15T07:14:49.358Z,87.87
2023-01-15T07:15:49.319Z,88.08
2023-01-15T07:16:49.310Z,87.77
2023-01-15T07:17:49.315Z,87.98
2023-01-15T07:18:49.278Z,88.29
2023-01-15T07:19:49.274Z,88.18
2023-01-15T07:20:49.311Z,88.02
2023-01-15T07:21:49.364Z,87.56
2023-01-15T07:22:49.239Z,87.35
2023-01-15T07:23:49.275Z,86.94
2023-01-15T07:24:49.218Z,87.05
2023-01-15T07:25:49.203Z,87.26
2023-01-15T07:26:49.233Z,87.46
2023-01-15T07:27:49.183Z,87.15
2023-01-15T07:28:49.171Z,87.15
2023-01-15T07:29:49.161Z,87.26
2023-01-15T07:30:49.143Z,87.08
2023-01-15T07:31:49.149Z,87.26
2023-01-15T07:32:49.151Z,87.29
2023-01-15T07:33:49.127Z,87.35
2023-01-15T07:34:49.142Z,87.56
2023-01-15T07:35:49.097Z,87.29
2023-01-15T07:36:49.077Z,87.50
2023-01-15T07:37:49.085Z,87.19
2023-01-15T07:38:49.086Z,86.98
2023-01-15T07:39:49.045Z,87.19
2023-01-15T07:40:49.031Z,86.98
2023-01-15T07:41:49.080Z,86.68
2023-01-15T07:42:49.024Z,86.68
2023-01-15T07:43:49.005Z,86.78
2023-01-15T07:44:49.023Z,86.47
2023-01-15T07:45:49.022Z,86.47
2023-01-15T07:46:48.966Z,86.47
2023-01-15T07:47:49.282Z,86.36
2023-01-15T07:48:48.982Z,86.57
2023-01-15T07:49:48.947Z,86.26
2023-01-15T07:50:48.965Z,86.47
2023-01-15T07:51:48.993Z,86.36
2023-01-15T07:52:48.894Z,85.95
2023-01-15T07:53:48.885Z,86.26
2023-01-15T07:54:48.897Z,86.36
2023-01-15T07:55:48.865Z,85.54
2023-01-15T07:56:48.882Z,85.44
2023-01-15T07:57:48.844Z,85.64
2023-01-15T07:58:48.833Z,85.95
2023-01-15T07:59:48.815Z,86.16
2023-01-15T08:00:48.881Z,86.26
2023-01-15T08:01:48.954Z,86.57
2023-01-15T08:02:48.838Z,86.36
2023-01-15T08:03:48.803Z,86.57
2023-01-15T08:04:48.770Z,86.68
2023-01-15T08:05:48.770Z,85.95
2023-01-15T08:06:48.739Z,85.95
2023-01-15T08:07:48.730Z,85.64
2023-01-15T08:08:48.766Z,85.75
2023-01-15T08:09:48.732Z,85.85
2023-01-15T08:10:48.729Z,87.08
2023-01-15T08:11:48.685Z,87.81
2023-01-15T08:12:48.687Z,88.26
2023-01-15T08:13:48.659Z,88.37
2023-01-15T08:14:48.687Z,89.34
2023-01-15T08:15:48.644Z,88.71
2023-01-15T08:16:48.624Z,89.17
2023-01-15T08:17:48.634Z,89.48
2023-01-15T08:18:48.615Z,89.69
2023-01-15T08:19:48.616Z,89.69
2023-01-15T08:20:48.582Z,89.69
2023-01-15T08:21:48.565Z,89.59
2023-01-15T08:22:48.570Z,89.52
2023-01-15T08:23:48.553Z,89.73
2023-01-15T08:24:48.569Z,89.94
2023-01-15T08:25:48.529Z,89.94
2023-01-15T08:26:48.532Z,89.94
2023-01-15T08:27:48.514Z,89.83
2023-01-15T08:28:48.498Z,89.89
2023-01-15T08:29:48.514Z,89.69
2023-01-15T08:30:48.507Z,89.79
2023-01-15T08:31:48.528Z,90.00
2023-01-15T08:32:48.460Z,90.00
2023-01-15T08:33:48.444Z,89.89
2023-01-15T08:34:48.467Z,89.59
2023-01-15T08:35:48.408Z,89.69
2023-01-15T08:36:48.428Z,89.69
2023-01-15T08:37:48.399Z,89.38
2023-01-15T08:38:48.380Z,88.82
2023-01-15T08:39:48.387Z,88.71
2023-01-15T08:40:48.358Z,88.41
2023-01-15T08:41:48.342Z,88.41
2023-01-15T08:42:48.340Z,87.99
2023-01-15T08:43:48.325Z,88.31
2023-01-15T08:44:48.372Z,87.17
2023-01-15T08:45:48.369Z,86.82
2023-01-15T08:46:48.292Z,86.41
2023-01-15T08:47:48.277Z,86.51
2023-01-15T08:48:48.271Z,87.02
2023-01-15T08:49:48.327Z,86.82
2023-01-15T08:50:48.254Z,86.61
2023-01-15T08:51:48.238Z,86.92
2023-01-15T08:52:48.226Z,87.02
2023-01-15T08:53:48.224Z,86.82
2023-01-15T08:54:48.235Z,86.92
2023-01-15T08:55:48.194Z,86.92
2023-01-15T08:56:48.172Z,86.61
2023-01-15T08:57:48.176Z,86.92
2023-01-15T08:58:48.175Z,86.82
2023-01-15T08:59:48.172Z,86.30
2023-01-15T09:00:48.168Z,86.30
2023-01-15T09:01:48.240Z,86.10
2023-01-15T09:02:50.093Z,86.20
2023-01-15T09:03:48.115Z,86.61
2023-01-15T09:04:48.184Z,86.71
2023-01-15T09:05:48.086Z,86.10
2023-01-15T09:06:48.071Z,86.20
2023-01-15T09:07:48.055Z,86.30
2023-01-15T09:08:48.052Z,86.20
2023-01-15T09:09:48.053Z,86.61
2023-01-15T09:10:48.025Z,86.13
2023-01-15T09:11:48.007Z,85.58
2023-01-15T09:12:47.998Z,85.37
2023-01-15T09:13:47.993Z,85.06
2023-01-15T09:14:59.311Z,85.27
2023-01-15T09:15:47.975Z,85.27
2023-01-15T09:16:47.994Z,84.75
2023-01-15T09:17:47.939Z,84.34
2023-01-15T09:18:47.924Z,83.99
2023-01-15T09:19:47.937Z,83.37
2023-01-15T09:20:47.912Z,84.20
2023-01-15T09:21:47.925Z,84.20
2023-01-15T09:22:47.879Z,83.27
2023-01-15T09:23:47.880Z,82.96
2023-01-15T09:24:47.877Z,83.27
2023-01-15T09:25:47.849Z,82.20
2023-01-15T09:26:47.847Z,82.61
2023-01-15T09:27:47.829Z,82.51
2023-01-15T09:28:47.809Z,81.99
2023-01-15T09:29:47.837Z,81.99
2023-01-15T09:30:47.825Z,80.55
2023-01-15T09:31:47.777Z,81.07
2023-01-15T09:32:47.789Z,81.79
2023-01-15T09:33:47.761Z,81.48
2023-01-15T09:34:47.766Z,81.79
2023-01-15T09:35:47.736Z,80.44
2023-01-15T09:36:47.725Z,80.55
2023-01-15T09:37:47.712Z,81.99
2023-01-15T09:38:47.699Z,80.34
2023-01-15T09:39:47.723Z,81.17
2023-01-15T09:40:47.688Z,80.24
2023-01-15T09:41:47.667Z,81.48
2023-01-15T09:42:47.651Z,80.96
2023-01-15T09:43:50.739Z,80.96
2023-01-15T09:44:47.652Z,80.96
2023-01-15T09:45:47.718Z,81.79
2023-01-15T09:46:47.620Z,81.99
2023-01-15T09:47:47.608Z,82.82
2023-01-15T09:48:47.583Z,81.99
2023-01-15T09:49:47.606Z,82.10
2023-01-15T09:50:47.566Z,82.51
2023-01-15T09:51:47.575Z,81.99
2023-01-15T09:52:47.539Z,81.31
2023-01-15T09:53:47.536Z,81.00
2023-01-15T09:54:47.542Z,80.79
2023-01-15T09:55:47.509Z,80.58
2023-01-15T09:56:47.497Z,79.66
2023-01-15T09:57:47.480Z,79.35
2023-01-15T09:58:47.481Z,79.25
2023-01-15T09:59:47.487Z,79.00
2023-01-15T10:00:47.458Z,79.21
2023-01-15T10:01:47.445Z,79.93
2023-01-15T10:02:47.446Z,80.62
2023-01-15T10:03:47.538Z,79.38
2023-01-15T10:04:47.430Z,79.17
2023-01-15T10:05:47.399Z,78.34
2023-01-15T10:06:47.391Z,78.34
2023-01-15T10:07:47.378Z,78.14
2023-01-15T10:08:47.383Z,78.97
2023-01-15T10:09:47.369Z,79.11
2023-01-15T10:10:47.351Z,79.69
2023-01-15T10:11:47.329Z,78.04
2023-01-15T10:12:47.328Z,77.73
2023-01-15T10:13:47.323Z,77.45
2023-01-15T10:14:47.312Z,78.55
2023-01-15T10:15:47.341Z,79.27
2023-01-15T10:16:47.273Z,78.76
2023-01-15T10:17:48.664Z,78.76
2023-01-15T10:18:47.255Z,78.55
2023-01-15T10:19:47.254Z,78.24
2023-01-15T10:20:47.224Z,78.24
2023-01-15T10:21:47.216Z,79.48
2023-01-15T10:22:47.207Z,78.80
2023-01-15T10:23:47.199Z,78.59
2023-01-15T10:24:47.215Z,78.08
2023-01-15T10:25:47.172Z,77.35
2023-01-15T10:26:47.156Z,77.22
2023-01-15T10:27:47.148Z,78.14
2023-01-15T10:28:47.143Z,77.22
2023-01-15T10:29:47.147Z,77.11
2023-01-15T10:30:47.131Z,76.70
2023-01-15T10:31:47.113Z,77.73
2023-01-15T10:33:01.087Z,77.01
2023-01-15T10:33:47.103Z,78.11
2023-01-15T10:34:47.102Z,77.08
2023-01-15T10:35:47.066Z,77.31
2023-01-15T10:36:47.052Z,76.18
2023-01-15T10:37:47.038Z,76.90
2023-01-15T10:38:47.020Z,77.11
2023-01-15T10:39:47.031Z,76.87
2023-01-15T10:40:47.002Z,76.87
2023-01-15T10:41:46.990Z,77.08
2023-01-15T10:42:46.988Z,77.08
2023-01-15T10:43:46.967Z,76.76
2023-01-15T10:44:46.993Z,77.38
2023-01-15T10:45:47.061Z,77.48
2023-01-15T10:46:46.921Z,76.46
2023-01-15T10:47:46.918Z,76.46
2023-01-15T10:48:46.908Z,76.25
2023-01-15T10:49:46.931Z,76.66
2023-01-15T10:50:46.882Z,76.46
2023-01-15T10:51:46.899Z,77.69
2023-01-15T10:52:46.860Z,76.97
2023-01-15T10:53:46.850Z,77.48
2023-01-15T10:54:46.889Z,76.97
2023-01-15T10:55:46.822Z,76.35
2023-01-15T10:56:46.820Z,78.00
2023-01-15T10:57:46.840Z,77.69
2023-01-15T10:58:46.802Z,76.04
2023-01-15T10:59:46.805Z,75.12
2023-01-15T11:00:46.794Z,75.39
2023-01-15T11:01:46.850Z,76.63
2023-01-15T11:02:46.767Z,76.83
2023-01-15T11:03:46.732Z,76.53
2023-01-15T11:04:46.751Z,75.49
2023-01-15T11:05:46.721Z,76.21
2023-01-15T11:06:46.706Z,76.53
2023-01-15T11:08:10.459Z,76.42
2023-01-15T11:09:46.698Z,77.31
2023-01-15T11:10:46.677Z,75.08
2023-01-15T11:11:46.667Z,75.87
2023-01-15T11:12:46.662Z,75.49
2023-01-15T11:13:46.616Z,75.29
2023-01-15T11:14:46.641Z,75.49
2023-01-15T11:15:46.636Z,75.29
2023-01-15T11:16:46.592Z,75.29
2023-01-15T11:17:46.581Z,76.39
2023-01-15T11:18:46.573Z,76.90
2023-01-15T11:19:46.580Z,76.07
2023-01-15T11:20:46.542Z,75.56
2023-01-15T11:21:46.529Z,75.18
2023-01-15T11:22:46.543Z,75.29
2023-01-15T11:23:46.509Z,76.01
2023-01-15T11:24:46.542Z,76.01
2023-01-15T11:25:46.483Z,75.90
2023-01-15T11:26:46.483Z,76.32
2023-01-15T11:27:46.457Z,76.21
2023-01-15T11:28:46.476Z,76.63
2023-01-15T11:29:46.517Z,76.42
2023-01-15T11:30:46.516Z,75.70
2023-01-15T11:31:46.433Z,75.70
2023-01-15T11:32:46.406Z,76.01
2023-01-15T11:33:46.396Z,76.11
2023-01-15T11:34:46.408Z,75.70
2023-01-15T11:35:46.368Z,76.42
2023-01-15T11:36:46.364Z,76.01
2023-01-15T11:37:46.346Z,76.01
2023-01-15T11:38:46.351Z,76.83
2023-01-15T11:39:46.349Z,76.63
2023-01-15T11:40:47.266Z,77.21
2023-01-15T11:41:46.303Z,76.73
2023-01-15T11:42:46.362Z,76.01
2023-01-15T11:43:46.289Z,76.21
2023-01-15T11:44:46.299Z,76.83
2023-01-15T11:45:46.259Z,77.04
2023-01-15T11:46:46.338Z,76.11
2023-01-15T11:47:46.232Z,76.42
2023-01-15T11:48:46.246Z,76.49
2023-01-15T11:49:46.240Z,76.70
2023-01-15T11:50:46.200Z,76.90
2023-01-15T11:51:46.213Z,76.70
2023-01-15T11:52:46.183Z,75.67
2023-01-15T11:53:46.211Z,74.74
2023-01-15T11:54:46.178Z,75.22
2023-01-15T11:55:46.145Z,75.63
2023-01-15T11:56:46.132Z,75.01
2023-01-15T11:57:46.121Z,74.29
2023-01-15T11:58:46.114Z,73.16
2023-01-15T11:59:46.125Z,74.50
2023-01-15T12:00:46.093Z,74.60
2023-01-15T12:01:46.088Z,74.80
2023-01-15T12:02:46.062Z,73.91
2023-01-15T12:03:46.131Z,74.02
2023-01-15T12:04:46.083Z,74.22
2023-01-15T12:05:46.039Z,75.15
2023-01-15T12:06:46.054Z,74.84
2023-01-15T12:07:46.037Z,74.02
2023-01-15T12:08:46.012Z,74.22
2023-01-15T12:09:46.017Z,74.84
2023-01-15T12:10:45.971Z,75.67
2023-01-15T12:11:45.967Z,75.05
2023-01-15T12:12:45.953Z,75.05
2023-01-15T12:13:45.945Z,74.12
2023-01-15T12:14:45.953Z,74.22
2023-01-15T12:15:45.998Z,75.25
2023-01-15T12:16:45.908Z,75.05
2023-01-15T12:17:45.911Z,75.46
2023-01-15T12:18:45.883Z,74.74
2023-01-15T12:19:45.898Z,74.53
2023-01-15T12:20:45.857Z,74.63
2023-01-15T12:21:45.855Z,75.67
2023-01-15T12:22:45.840Z,75.77
2023-01-15T12:23:45.855Z,74.63
2023-01-15T12:24:45.843Z,74.63
2023-01-15T12:25:45.844Z,75.87
2023-01-15T12:26:45.789Z,75.25
2023-01-15T12:27:45.783Z,74.43
2023-01-15T12:28:45.788Z,74.95
2023-01-15T12:29:45.799Z,75.35
2023-01-15T12:30:45.752Z,74.84
2023-01-15T12:31:45.776Z,75.15
2023-01-15T12:32:45.723Z,76.07
2023-01-15T12:33:45.721Z,75.67
2023-01-15T12:34:45.723Z,75.67
2023-01-15T12:35:45.698Z,74.74
2023-01-15T12:37:45.669Z,75.67
2023-01-15T12:38:47.267Z,75.67
2023-01-15T12:39:45.672Z,74.53
2023-01-15T12:40:45.633Z,75.25
2023-01-15T12:41:45.670Z,75.56
2023-01-15T12:42:45.623Z,75.77
2023-01-15T12:43:45.611Z,75.67
2023-01-15T12:44:45.656Z,76.39
2023-01-15T12:45:45.580Z,75.56
2023-01-15T12:46:45.679Z,75.35
2023-01-15T12:47:45.583Z,76.07
2023-01-15T12:48:45.540Z,74.84
2023-01-15T12:49:45.569Z,75.25
2023-01-15T12:50:45.533Z,75.56
2023-01-15T12:51:45.517Z,75.15
2023-01-15T12:52:45.505Z,76.39
2023-01-15T12:53:45.511Z,75.97
2023-01-15T12:54:45.506Z,75.42